LOT7VR EPWA-LSZH
Flight info
| Callsign | LOT7VR |
|---|---|
| Flight time | 1h 35m |
| Altitude | 38000 |
| Route | SOXER DCT VAMPU N869 AGALU DCT TOMTI DCT ASTEL DCT OKG DCT AMOSA N869 TEDGO/N0446F390 T724 RILAX |
| Aircraft | B738/M-SDE2E3FGHIRWXY/LB1 |
Departure
| Time | 2026-05-04 05:51 |
|---|---|
| Airport | Warsaw Chopin Airport (EPWA) |
Arrival
| Time | 2026-05-04 07:26 |
|---|---|
| Airport | Zürich Airport (LSZH) |
| Time | Latitude | Longitude | Altitude | Speed | Heading |
|---|---|---|---|---|---|
| 2026-05-04 05:29 | 52.16998 | 20.97134 | 334 ft | 0 kts | 70° |
| 2026-05-04 05:40 | 52.16993 | 20.97110 | 333 ft | 2 kts | 70° |
| 2026-05-04 05:41 | 52.16987 | 20.97085 | 332 ft | 2 kts | 70° |
| 2026-05-04 05:41 | 52.16981 | 20.97060 | 333 ft | 2 kts | 70° |
| 2026-05-04 05:41 | 52.16976 | 20.97034 | 333 ft | 2 kts | 62° |
| 2026-05-04 05:41 | 52.16964 | 20.97015 | 335 ft | 2 kts | 1° |
| 2026-05-04 05:42 | 52.16949 | 20.97023 | 335 ft | 2 kts | 333° |
| 2026-05-04 05:42 | 52.16941 | 20.97030 | 335 ft | 0 kts | 331° |
| 2026-05-04 05:45 | 52.17118 | 20.96647 | 336 ft | 8 kts | 241° |
| 2026-05-04 05:45 | 52.17091 | 20.96571 | 336 ft | 8 kts | 241° |
| 2026-05-04 05:47 | 52.17078 | 20.96532 | 335 ft | 0 kts | 241° |
| 2026-05-04 05:48 | 52.17068 | 20.96502 | 335 ft | 8 kts | 241° |
| 2026-05-04 05:48 | 52.17037 | 20.96409 | 335 ft | 10 kts | 241° |
| 2026-05-04 05:48 | 52.16991 | 20.96348 | 336 ft | 7 kts | 172° |
| 2026-05-04 05:49 | 52.16978 | 20.96358 | 336 ft | 0 kts | 152° |
| 2026-05-04 05:49 | 52.16972 | 20.96363 | 336 ft | 8 kts | 152° |
| 2026-05-04 05:49 | 52.16692 | 20.96607 | 337 ft | 83 kts | 152° |
| 2026-05-04 05:49 | 52.15975 | 20.97230 | 347 ft | 147 kts | 152° |
| 2026-05-04 05:51 | 52.08459 | 20.97308 | 4245 ft | 219 kts | 213° |
| 2026-05-04 05:51 | 52.07133 | 20.95983 | 4642 ft | 234 kts | 212° |
| 2026-05-04 05:52 | 52.05714 | 20.94576 | 5116 ft | 248 kts | 212° |
| 2026-05-04 05:52 | 52.04397 | 20.92804 | 5965 ft | 248 kts | 233° |
| 2026-05-04 05:52 | 52.03624 | 20.90301 | 6794 ft | 252 kts | 253° |
| 2026-05-04 05:52 | 52.03412 | 20.87447 | 7536 ft | 258 kts | 264° |
| 2026-05-04 05:53 | 52.03344 | 20.84492 | 8296 ft | 263 kts | 265° |
| 2026-05-04 05:54 | 52.02835 | 20.60975 | 11875 ft | 341 kts | 266° |
| 2026-05-04 05:55 | 52.02739 | 20.57113 | 12603 ft | 344 kts | 266° |
| 2026-05-04 05:55 | 52.02673 | 20.53214 | 13332 ft | 348 kts | 269° |
| 2026-05-04 05:55 | 52.02749 | 20.49258 | 14030 ft | 353 kts | 271° |
| 2026-05-04 05:55 | 52.02886 | 20.45262 | 14742 ft | 355 kts | 271° |
| 2026-05-04 05:56 | 52.03033 | 20.41296 | 15457 ft | 358 kts | 271° |
| 2026-05-04 05:56 | 52.03175 | 20.37259 | 16187 ft | 360 kts | 271° |
| 2026-05-04 05:56 | 52.03309 | 20.33172 | 16876 ft | 364 kts | 271° |
| 2026-05-04 05:56 | 52.03435 | 20.29052 | 17566 ft | 367 kts | 271° |
| 2026-05-04 05:57 | 52.03556 | 20.24895 | 18254 ft | 370 kts | 271° |
| 2026-05-04 05:57 | 52.03674 | 20.20700 | 18838 ft | 374 kts | 271° |
| 2026-05-04 05:57 | 52.03791 | 20.16465 | 19381 ft | 378 kts | 271° |
| 2026-05-04 05:57 | 52.03908 | 20.12186 | 19937 ft | 381 kts | 271° |
| 2026-05-04 05:58 | 52.04023 | 20.07917 | 20472 ft | 385 kts | 271° |
| 2026-05-04 05:58 | 52.04140 | 20.03553 | 21026 ft | 389 kts | 271° |
| 2026-05-04 05:58 | 52.04255 | 19.99147 | 21566 ft | 392 kts | 271° |
| 2026-05-04 05:58 | 52.04333 | 19.94700 | 22088 ft | 396 kts | 267° |
| 2026-05-04 05:59 | 52.03829 | 19.90307 | 22568 ft | 399 kts | 252° |
| 2026-05-04 05:59 | 52.02912 | 19.86028 | 23087 ft | 403 kts | 250° |
| 2026-05-04 05:59 | 52.01948 | 19.81739 | 23547 ft | 407 kts | 250° |
| 2026-05-04 05:59 | 52.00967 | 19.77397 | 23946 ft | 411 kts | 250° |
| 2026-05-04 06:00 | 51.99988 | 19.73026 | 24360 ft | 414 kts | 250° |
| 2026-05-04 06:00 | 51.99024 | 19.68684 | 24790 ft | 416 kts | 250° |
| 2026-05-04 06:00 | 51.98048 | 19.64248 | 25198 ft | 419 kts | 250° |
| 2026-05-04 06:00 | 51.97068 | 19.59782 | 25595 ft | 421 kts | 250° |
| 2026-05-04 06:01 | 51.96084 | 19.55297 | 25981 ft | 424 kts | 250° |
| 2026-05-04 06:01 | 51.95091 | 19.50778 | 26365 ft | 427 kts | 250° |
| 2026-05-04 06:03 | 51.87959 | 19.18576 | 28798 ft | 444 kts | 250° |
| 2026-05-04 06:03 | 51.86907 | 19.13872 | 29090 ft | 446 kts | 250° |
| 2026-05-04 06:05 | 51.79676 | 18.80847 | 31776 ft | 442 kts | 250° |
| 2026-05-04 06:05 | 51.77619 | 18.71559 | 32646 ft | 436 kts | 250° |
| 2026-05-04 06:05 | 51.76613 | 18.67029 | 33046 ft | 434 kts | 250° |
| 2026-05-04 06:06 | 51.75595 | 18.62452 | 33418 ft | 433 kts | 250° |
| 2026-05-04 06:06 | 51.74577 | 18.57888 | 33808 ft | 431 kts | 250° |
| 2026-05-04 06:06 | 51.73563 | 18.53347 | 34157 ft | 429 kts | 250° |
| 2026-05-04 06:06 | 51.72553 | 18.48833 | 34447 ft | 429 kts | 250° |
| 2026-05-04 06:07 | 51.71538 | 18.44306 | 34685 ft | 429 kts | 250° |
| 2026-05-04 06:07 | 51.70522 | 18.39783 | 34932 ft | 429 kts | 250° |
| 2026-05-04 06:07 | 51.69518 | 18.35325 | 35195 ft | 428 kts | 250° |
| 2026-05-04 06:07 | 51.68501 | 18.30820 | 35467 ft | 428 kts | 250° |
| 2026-05-04 06:08 | 51.67483 | 18.26319 | 35744 ft | 427 kts | 250° |
| 2026-05-04 06:08 | 51.66465 | 18.21830 | 36012 ft | 427 kts | 250° |
| 2026-05-04 06:08 | 51.65446 | 18.17342 | 36255 ft | 426 kts | 250° |
| 2026-05-04 06:08 | 51.64426 | 18.12860 | 36528 ft | 426 kts | 250° |
| 2026-05-04 06:09 | 51.63408 | 18.08398 | 36797 ft | 425 kts | 250° |
| 2026-05-04 06:09 | 51.62389 | 18.03937 | 37043 ft | 424 kts | 250° |
| 2026-05-04 06:11 | 51.55213 | 17.72946 | 37986 ft | 423 kts | 250° |
| 2026-05-04 06:13 | 51.46972 | 17.38066 | 37987 ft | 416 kts | 249° |
| 2026-05-04 06:14 | 51.39736 | 17.07632 | 37991 ft | 421 kts | 249° |
| 2026-05-04 06:15 | 51.37636 | 16.98872 | 37993 ft | 422 kts | 249° |
| 2026-05-04 06:15 | 51.35535 | 16.90144 | 37993 ft | 424 kts | 249° |
| 2026-05-04 06:16 | 51.33409 | 16.81349 | 37993 ft | 424 kts | 249° |
| 2026-05-04 06:16 | 51.31272 | 16.72540 | 37987 ft | 425 kts | 249° |
| 2026-05-04 06:17 | 51.29130 | 16.63748 | 37990 ft | 425 kts | 249° |
| 2026-05-04 06:17 | 51.26996 | 16.55023 | 37991 ft | 424 kts | 249° |
| 2026-05-04 06:18 | 51.24846 | 16.46270 | 37991 ft | 423 kts | 248° |
| 2026-05-04 06:20 | 51.16258 | 16.11640 | 37997 ft | 419 kts | 248° |
| 2026-05-04 06:21 | 51.10874 | 15.90201 | 38005 ft | 419 kts | 248° |
| 2026-05-04 06:22 | 51.08698 | 15.81594 | 38001 ft | 419 kts | 248° |
| 2026-05-04 06:25 | 50.93546 | 15.21069 | 38013 ft | 422 kts | 252° |
| 2026-05-04 06:26 | 50.91796 | 15.12266 | 38004 ft | 422 kts | 252° |
| 2026-05-04 06:26 | 50.90005 | 15.03436 | 38002 ft | 421 kts | 252° |
| 2026-05-04 06:27 | 50.85179 | 14.81763 | 38012 ft | 417 kts | 244° |
| 2026-05-04 06:28 | 50.82597 | 14.73544 | 38008 ft | 416 kts | 243° |
| 2026-05-04 06:28 | 50.80002 | 14.65376 | 38005 ft | 416 kts | 243° |
| 2026-05-04 06:29 | 50.77442 | 14.57261 | 38006 ft | 415 kts | 243° |
| 2026-05-04 06:29 | 50.74874 | 14.49097 | 38000 ft | 415 kts | 243° |
| 2026-05-04 06:30 | 50.72309 | 14.40952 | 38002 ft | 414 kts | 243° |
| 2026-05-04 06:30 | 50.69743 | 14.32831 | 37994 ft | 414 kts | 243° |
| 2026-05-04 06:31 | 50.67185 | 14.24760 | 38003 ft | 414 kts | 243° |
| 2026-05-04 06:31 | 50.64606 | 14.16652 | 37992 ft | 414 kts | 243° |
| 2026-05-04 06:33 | 50.54223 | 13.84274 | 38008 ft | 415 kts | 243° |
| 2026-05-04 06:34 | 50.51605 | 13.76177 | 38002 ft | 416 kts | 243° |
| 2026-05-04 06:34 | 50.48977 | 13.68073 | 38001 ft | 416 kts | 243° |
| 2026-05-04 06:36 | 50.38439 | 13.35845 | 38007 ft | 416 kts | 242° |
| 2026-05-04 06:37 | 50.35783 | 13.27787 | 38018 ft | 416 kts | 242° |
| 2026-05-04 06:37 | 50.33121 | 13.19737 | 38026 ft | 416 kts | 242° |
| 2026-05-04 06:38 | 50.30456 | 13.11704 | 38042 ft | 416 kts | 242° |
| 2026-05-04 06:40 | 50.19738 | 12.79652 | 38044 ft | 417 kts | 242° |
| 2026-05-04 06:40 | 50.17035 | 12.71630 | 38045 ft | 418 kts | 242° |
| 2026-05-04 06:41 | 50.14341 | 12.63663 | 38034 ft | 418 kts | 242° |
| 2026-05-04 06:41 | 50.11621 | 12.55642 | 38028 ft | 419 kts | 242° |
| 2026-05-04 06:42 | 50.08893 | 12.47617 | 38020 ft | 419 kts | 242° |
| 2026-05-04 06:44 | 49.97978 | 12.15522 | 38013 ft | 421 kts | 242° |
| 2026-05-04 06:44 | 49.95252 | 12.07541 | 38014 ft | 421 kts | 242° |
| 2026-05-04 06:45 | 49.92501 | 11.99515 | 38019 ft | 421 kts | 242° |
| 2026-05-04 06:45 | 49.89747 | 11.91507 | 38015 ft | 421 kts | 241° |
| 2026-05-04 06:46 | 49.86992 | 11.83518 | 38014 ft | 420 kts | 241° |
| 2026-05-04 06:46 | 49.84252 | 11.75600 | 38014 ft | 419 kts | 241° |
| 2026-05-04 06:48 | 49.73225 | 11.43976 | 38020 ft | 417 kts | 241° |
| 2026-05-04 06:50 | 49.62153 | 11.12607 | 38052 ft | 417 kts | 241° |
| 2026-05-04 06:51 | 49.59364 | 11.04764 | 38052 ft | 417 kts | 241° |
| 2026-05-04 06:51 | 49.56568 | 10.96926 | 38046 ft | 417 kts | 241° |
| 2026-05-04 06:52 | 49.53768 | 10.89094 | 38050 ft | 417 kts | 241° |
| 2026-05-04 06:52 | 49.50883 | 10.81418 | 38038 ft | 417 kts | 235° |
| 2026-05-04 06:53 | 49.47008 | 10.74807 | 38051 ft | 417 kts | 226° |
| 2026-05-04 06:53 | 49.42922 | 10.68460 | 38052 ft | 417 kts | 226° |
| 2026-05-04 06:54 | 49.38929 | 10.62082 | 38056 ft | 417 kts | 227° |
| 2026-05-04 06:54 | 49.34937 | 10.55625 | 38058 ft | 417 kts | 227° |
| 2026-05-04 06:55 | 49.30853 | 10.49310 | 38065 ft | 417 kts | 225° |
| 2026-05-04 06:55 | 49.26725 | 10.43063 | 38063 ft | 417 kts | 226° |
| 2026-05-04 06:57 | 49.22203 | 10.36155 | 38061 ft | 417 kts | 226° |
| 2026-05-04 06:59 | 49.19013 | 10.31158 | 38055 ft | 417 kts | 226° |
| 2026-05-04 07:01 | 49.05775 | 10.07676 | 36666 ft | 418 kts | 232° |
| 2026-05-04 07:01 | 49.03955 | 10.04217 | 36061 ft | 417 kts | 232° |
| 2026-05-04 07:02 | 49.02136 | 10.00777 | 35434 ft | 417 kts | 232° |
| 2026-05-04 07:02 | 49.00339 | 9.97386 | 34788 ft | 418 kts | 232° |
| 2026-05-04 07:02 | 48.98512 | 9.93948 | 34132 ft | 418 kts | 232° |
| 2026-05-04 07:02 | 48.96685 | 9.90513 | 33551 ft | 415 kts | 232° |
| 2026-05-04 07:03 | 48.94877 | 9.87121 | 33054 ft | 411 kts | 232° |
| 2026-05-04 07:03 | 48.93090 | 9.83767 | 32588 ft | 405 kts | 232° |
| 2026-05-04 07:03 | 48.91323 | 9.80457 | 32127 ft | 401 kts | 232° |
| 2026-05-04 07:03 | 48.89599 | 9.77231 | 31663 ft | 397 kts | 232° |
| 2026-05-04 07:04 | 48.87865 | 9.73993 | 31227 ft | 392 kts | 232° |
| 2026-05-04 07:04 | 48.86159 | 9.70811 | 30896 ft | 386 kts | 231° |
| 2026-05-04 07:04 | 48.84470 | 9.67665 | 30457 ft | 383 kts | 231° |
| 2026-05-04 07:04 | 48.82794 | 9.64546 | 30016 ft | 380 kts | 231° |
| 2026-05-04 07:05 | 48.81131 | 9.61451 | 29518 ft | 377 kts | 231° |
| 2026-05-04 07:05 | 48.79485 | 9.58394 | 29069 ft | 372 kts | 231° |
| 2026-05-04 07:05 | 48.77877 | 9.55407 | 28618 ft | 368 kts | 231° |
| 2026-05-04 07:05 | 48.76264 | 9.52414 | 28166 ft | 365 kts | 231° |
| 2026-05-04 07:06 | 48.73072 | 9.46508 | 27279 ft | 359 kts | 231° |
| 2026-05-04 07:06 | 48.71487 | 9.43590 | 26799 ft | 358 kts | 231° |
| 2026-05-04 07:06 | 48.69904 | 9.40693 | 26341 ft | 356 kts | 231° |
| 2026-05-04 07:07 | 48.68330 | 9.37816 | 25903 ft | 354 kts | 230° |
| 2026-05-04 07:08 | 48.56125 | 9.19445 | 22690 ft | 361 kts | 217° |
| 2026-05-04 07:09 | 48.54100 | 9.17220 | 22249 ft | 357 kts | 217° |
| 2026-05-04 07:09 | 48.52105 | 9.15020 | 21811 ft | 354 kts | 217° |
| 2026-05-04 07:09 | 48.50158 | 9.12861 | 21392 ft | 351 kts | 217° |
| 2026-05-04 07:09 | 48.48201 | 9.10686 | 20963 ft | 348 kts | 217° |
| 2026-05-04 07:10 | 48.46259 | 9.08524 | 20542 ft | 346 kts | 217° |
| 2026-05-04 07:10 | 48.44334 | 9.06381 | 20124 ft | 343 kts | 217° |
| 2026-05-04 07:12 | 48.31142 | 8.91739 | 17185 ft | 332 kts | 216° |
| 2026-05-04 07:12 | 48.29286 | 8.89681 | 16743 ft | 330 kts | 216° |
| 2026-05-04 07:12 | 48.27443 | 8.87633 | 16328 ft | 328 kts | 217° |
| 2026-05-04 07:12 | 48.25615 | 8.85603 | 15911 ft | 326 kts | 216° |
| 2026-05-04 07:13 | 48.23794 | 8.83582 | 15517 ft | 324 kts | 216° |
| 2026-05-04 07:13 | 48.22014 | 8.81607 | 15121 ft | 322 kts | 216° |
| 2026-05-04 07:13 | 48.20224 | 8.79626 | 14744 ft | 319 kts | 216° |
| 2026-05-04 07:14 | 48.13144 | 8.71853 | 13158 ft | 312 kts | 216° |
| 2026-05-04 07:14 | 48.11394 | 8.69949 | 12747 ft | 310 kts | 215° |
| 2026-05-04 07:15 | 48.09661 | 8.68064 | 12379 ft | 307 kts | 215° |
| 2026-05-04 07:15 | 48.07959 | 8.66211 | 11968 ft | 307 kts | 215° |
| 2026-05-04 07:15 | 48.06230 | 8.64332 | 11473 ft | 308 kts | 214° |
| 2026-05-04 07:15 | 48.04490 | 8.62442 | 11042 ft | 308 kts | 214° |
| 2026-05-04 07:16 | 48.02758 | 8.60563 | 10659 ft | 307 kts | 214° |
| 2026-05-04 07:16 | 48.01057 | 8.58716 | 10527 ft | 297 kts | 214° |
| 2026-05-04 07:16 | 47.99416 | 8.56933 | 10447 ft | 286 kts | 214° |
| 2026-05-04 07:16 | 47.97833 | 8.55220 | 10377 ft | 276 kts | 214° |
| 2026-05-04 07:17 | 47.96298 | 8.53563 | 10242 ft | 269 kts | 214° |
| 2026-05-04 07:17 | 47.94812 | 8.51957 | 10029 ft | 266 kts | 213° |
| 2026-05-04 07:17 | 47.93210 | 8.50621 | 9731 ft | 264 kts | 201° |
| 2026-05-04 07:17 | 47.91501 | 8.49630 | 9431 ft | 264 kts | 198° |
| 2026-05-04 07:18 | 47.89776 | 8.48710 | 9139 ft | 263 kts | 198° |
| 2026-05-04 07:18 | 47.88055 | 8.47793 | 8834 ft | 263 kts | 198° |
| 2026-05-04 07:18 | 47.86331 | 8.46864 | 8546 ft | 263 kts | 199° |
| 2026-05-04 07:18 | 47.84614 | 8.45926 | 8282 ft | 263 kts | 199° |
| 2026-05-04 07:19 | 47.82898 | 8.44982 | 7972 ft | 264 kts | 199° |
| 2026-05-04 07:19 | 47.81198 | 8.44041 | 7705 ft | 264 kts | 200° |
| 2026-05-04 07:19 | 47.79479 | 8.43089 | 7427 ft | 264 kts | 200° |
| 2026-05-04 07:19 | 47.77759 | 8.42130 | 7152 ft | 264 kts | 200° |
| 2026-05-04 07:20 | 47.76035 | 8.41166 | 6891 ft | 264 kts | 200° |
| 2026-05-04 07:20 | 47.74317 | 8.40212 | 6667 ft | 263 kts | 200° |
| 2026-05-04 07:20 | 47.72630 | 8.39274 | 6598 ft | 255 kts | 200° |
| 2026-05-04 07:20 | 47.70994 | 8.38362 | 6462 ft | 248 kts | 200° |
| 2026-05-04 07:22 | 47.60871 | 8.36227 | 5272 ft | 224 kts | 132° |
| 2026-05-04 07:22 | 47.59748 | 8.37850 | 4921 ft | 229 kts | 136° |
| 2026-05-04 07:23 | 47.58546 | 8.39472 | 4460 ft | 238 kts | 137° |
| 2026-05-04 07:23 | 47.57324 | 8.41130 | 4034 ft | 243 kts | 137° |
| 2026-05-04 07:23 | 47.56080 | 8.42829 | 3662 ft | 241 kts | 136° |
| 2026-05-04 07:23 | 47.54864 | 8.44492 | 3314 ft | 233 kts | 136° |
| 2026-05-04 07:24 | 47.53721 | 8.46057 | 2991 ft | 214 kts | 136° |
| 2026-05-04 07:24 | 47.52674 | 8.47487 | 2738 ft | 196 kts | 136° |
| 2026-05-04 07:24 | 47.51725 | 8.48783 | 2498 ft | 175 kts | 136° |
| 2026-05-04 07:24 | 47.50874 | 8.49926 | 2233 ft | 157 kts | 142° |
| 2026-05-04 07:25 | 47.50047 | 8.50934 | 2040 ft | 150 kts | 136° |
| 2026-05-04 07:26 | 47.46600 | 8.55678 | 1398 ft | 19 kts | 165° |
| 2026-05-04 07:27 | 47.46474 | 8.55718 | 1398 ft | 18 kts | 168° |
| 2026-05-04 07:27 | 47.46364 | 8.55782 | 1399 ft | 18 kts | 137° |
| 2026-05-04 07:27 | 47.46274 | 8.55905 | 1401 ft | 17 kts | 137° |
| 2026-05-04 07:27 | 47.46183 | 8.56002 | 1398 ft | 16 kts | 173° |
| 2026-05-04 07:28 | 47.46088 | 8.55989 | 1399 ft | 13 kts | 186° |
| 2026-05-04 07:28 | 47.46001 | 8.55977 | 1400 ft | 13 kts | 185° |
| 2026-05-04 07:28 | 47.45916 | 8.55942 | 1400 ft | 12 kts | 199° |
| 2026-05-04 07:28 | 47.45831 | 8.55898 | 1397 ft | 14 kts | 199° |
| 2026-05-04 07:29 | 47.45740 | 8.55871 | 1400 ft | 13 kts | 186° |
| 2026-05-04 07:29 | 47.45650 | 8.55857 | 1398 ft | 14 kts | 186° |
| 2026-05-04 07:29 | 47.45556 | 8.55842 | 1399 ft | 13 kts | 186° |
| 2026-05-04 07:29 | 47.45496 | 8.55910 | 1396 ft | 13 kts | 94° |
| 2026-05-04 07:30 | 47.45489 | 8.56003 | 1401 ft | 1 kts | 107° |
| 2026-05-04 07:30 | 47.45487 | 8.56005 | 1400 ft | 1 kts | 116° |
| 2026-05-04 07:30 | 47.45473 | 8.56012 | 1403 ft | 3 kts | 183° |
| 2026-05-04 07:30 | 47.45439 | 8.56006 | 1399 ft | 5 kts | 185° |
| 2026-05-04 07:31 | 47.45418 | 8.56003 | 1396 ft | 0 kts | 186° |
| 2026-05-04 07:31 | 47.45415 | 8.56003 | 1401 ft | 1 kts | 186° |
| 2026-05-04 07:33 | 47.45412 | 8.56002 | 1400 ft | 0 kts | 186° |